sensor_id;sensor_type;location;lat;lon;timestamp;temperature;humidity
75430;DHT22;64127;51.488;5.462;2022-12-18T00:01:37;-0.20;96.70
75430;DHT22;64127;51.488;5.462;2022-12-18T00:04:18;-0.20;96.60
75430;DHT22;64127;51.488;5.462;2022-12-18T00:06:54;-0.20;96.60
75430;DHT22;64127;51.488;5.462;2022-12-18T00:09:25;-0.20;96.50
75430;DHT22;64127;51.488;5.462;2022-12-18T00:12:10;-0.30;96.40
75430;DHT22;64127;51.488;5.462;2022-12-18T00:14:46;-0.20;96.40
75430;DHT22;64127;51.488;5.462;2022-12-18T00:17:18;-0.30;96.70
75430;DHT22;64127;51.488;5.462;2022-12-18T00:19:50;-0.30;96.30
75430;DHT22;64127;51.488;5.462;2022-12-18T00:22:22;-0.20;96.30
75430;DHT22;64127;51.488;5.462;2022-12-18T00:24:54;-0.30;96.20
75430;DHT22;64127;51.488;5.462;2022-12-18T00:27:26;-0.30;96.20
75430;DHT22;64127;51.488;5.462;2022-12-18T00:29:58;-0.30;96.20
75430;DHT22;64127;51.488;5.462;2022-12-18T00:32:30;-0.40;96.20
75430;DHT22;64127;51.488;5.462;2022-12-18T00:35:02;-0.30;96.20
75430;DHT22;64127;51.488;5.462;2022-12-18T00:37:34;-0.40;96.10
75430;DHT22;64127;51.488;5.462;2022-12-18T00:40:07;-0.40;96.10
75430;DHT22;64127;51.488;5.462;2022-12-18T00:42:39;-0.40;96.10
75430;DHT22;64127;51.488;5.462;2022-12-18T00:45:30;-0.40;96.00
75430;DHT22;64127;51.488;5.462;2022-12-18T00:48:03;-0.40;96.00
75430;DHT22;64127;51.488;5.462;2022-12-18T00:50:35;-0.40;96.00
75430;DHT22;64127;51.488;5.462;2022-12-18T00:53:07;-0.40;96.00
75430;DHT22;64127;51.488;5.462;2022-12-18T00:55:39;-0.40;95.90
75430;DHT22;64127;51.488;5.462;2022-12-18T00:58:14;-0.40;95.90
75430;DHT22;64127;51.488;5.462;2022-12-18T01:00:47;-0.40;95.90
75430;DHT22;64127;51.488;5.462;2022-12-18T01:03:19;-0.50;95.80
75430;DHT22;64127;51.488;5.462;2022-12-18T01:05:51;-0.50;95.80
75430;DHT22;64127;51.488;5.462;2022-12-18T01:08:23;-0.50;95.70
75430;DHT22;64127;51.488;5.462;2022-12-18T01:10:55;-0.50;95.70
75430;DHT22;64127;51.488;5.462;2022-12-18T01:13:27;-0.50;95.70
75430;DHT22;64127;51.488;5.462;2022-12-18T01:15:59;-0.50;95.70
75430;DHT22;64127;51.488;5.462;2022-12-18T01:18:31;-0.50;95.70
75430;DHT22;64127;51.488;5.462;2022-12-18T01:21:12;-0.60;95.60
75430;DHT22;64127;51.488;5.462;2022-12-18T01:23:52;-0.60;95.60
75430;DHT22;64127;51.488;5.462;2022-12-18T01:26:26;-0.60;95.60
75430;DHT22;64127;51.488;5.462;2022-12-18T01:29:01;-0.60;95.60
75430;DHT22;64127;51.488;5.462;2022-12-18T01:31:33;-0.60;95.60
75430;DHT22;64127;51.488;5.462;2022-12-18T01:34:06;-0.60;95.60
75430;DHT22;64127;51.488;5.462;2022-12-18T01:36:39;-0.60;95.60
75430;DHT22;64127;51.488;5.462;2022-12-18T01:39:13;-0.60;95.60
75430;DHT22;64127;51.488;5.462;2022-12-18T01:41:46;-0.70;95.50
75430;DHT22;64127;51.488;5.462;2022-12-18T01:47:57;-0.70;95.40
75430;DHT22;64127;51.488;5.462;2022-12-18T01:50:39;-0.70;95.40
75430;DHT22;64127;51.488;5.462;2022-12-18T01:53:18;-0.70;95.40
75430;DHT22;64127;51.488;5.462;2022-12-18T01:55:56;-0.70;95.40
75430;DHT22;64127;51.488;5.462;2022-12-18T02:01:12;-0.80;95.30
75430;DHT22;64127;51.488;5.462;2022-12-18T02:03:45;-0.80;95.30
75430;DHT22;64127;51.488;5.462;2022-12-18T02:06:19;-0.80;95.30
75430;DHT22;64127;51.488;5.462;2022-12-18T02:09:10;-0.80;95.30
75430;DHT22;64127;51.488;5.462;2022-12-18T02:11:49;-0.90;95.30
75430;DHT22;64127;51.488;5.462;2022-12-18T02:14:37;-0.90;95.30
75430;DHT22;64127;51.488;5.462;2022-12-18T02:17:23;-0.90;95.20
75430;DHT22;64127;51.488;5.462;2022-12-18T02:20:19;-1.00;95.20
75430;DHT22;64127;51.488;5.462;2022-12-18T02:23:50;-0.90;95.20
75430;DHT22;64127;51.488;5.462;2022-12-18T02:26:38;-0.90;95.20
75430;DHT22;64127;51.488;5.462;2022-12-18T02:29:43;-1.00;95.10
75430;DHT22;64127;51.488;5.462;2022-12-18T02:32:27;-1.00;95.10
75430;DHT22;64127;51.488;5.462;2022-12-18T02:35:04;-1.00;95.00
75430;DHT22;64127;51.488;5.462;2022-12-18T02:37:39;-1.00;95.00
75430;DHT22;64127;51.488;5.462;2022-12-18T02:40:16;-1.00;95.00
75430;DHT22;64127;51.488;5.462;2022-12-18T02:42:50;-1.00;95.00
75430;DHT22;64127;51.488;5.462;2022-12-18T02:45:22;-1.00;95.00
75430;DHT22;64127;51.488;5.462;2022-12-18T02:47:54;-1.00;94.90
75430;DHT22;64127;51.488;5.462;2022-12-18T02:50:39;-1.00;94.90
75430;DHT22;64127;51.488;5.462;2022-12-18T02:53:45;-1.00;94.90
75430;DHT22;64127;51.488;5.462;2022-12-18T02:56:45;-1.00;94.80
75430;DHT22;64127;51.488;5.462;2022-12-18T02:59:33;-1.00;94.80
75430;DHT22;64127;51.488;5.462;2022-12-18T03:02:33;-1.00;94.80
75430;DHT22;64127;51.488;5.462;2022-12-18T03:05:15;-1.10;94.80
75430;DHT22;64127;51.488;5.462;2022-12-18T03:07:57;-1.10;94.80
75430;DHT22;64127;51.488;5.462;2022-12-18T03:10:40;-1.10;94.80
75430;DHT22;64127;51.488;5.462;2022-12-18T03:13:33;-1.10;94.80
75430;DHT22;64127;51.488;5.462;2022-12-18T03:16:12;-1.10;94.80
75430;DHT22;64127;51.488;5.462;2022-12-18T03:18:54;-1.10;94.70
75430;DHT22;64127;51.488;5.462;2022-12-18T03:21:38;-1.10;94.70
75430;DHT22;64127;51.488;5.462;2022-12-18T03:24:16;-1.10;94.70
75430;DHT22;64127;51.488;5.462;2022-12-18T03:26:57;-1.10;94.60
75430;DHT22;64127;51.488;5.462;2022-12-18T03:29:51;-1.10;94.60
75430;DHT22;64127;51.488;5.462;2022-12-18T03:32:46;-1.10;94.50
75430;DHT22;64127;51.488;5.462;2022-12-18T03:35:33;-1.20;94.50
75430;DHT22;64127;51.488;5.462;2022-12-18T03:38:09;-1.20;94.50
75430;DHT22;64127;51.488;5.462;2022-12-18T03:41:03;-1.20;94.40
75430;DHT22;64127;51.488;5.462;2022-12-18T03:50:07;-1.20;94.40
75430;DHT22;64127;51.488;5.462;2022-12-18T03:53:00;-1.20;94.30
75430;DHT22;64127;51.488;5.462;2022-12-18T03:55:35;-1.20;94.30
75430;DHT22;64127;51.488;5.462;2022-12-18T03:58:09;-1.20;94.30
75430;DHT22;64127;51.488;5.462;2022-12-18T04:00:45;-1.30;94.20
75430;DHT22;64127;51.488;5.462;2022-12-18T04:03:20;-1.30;94.30
75430;DHT22;64127;51.488;5.462;2022-12-18T04:06:08;-1.30;94.30
75430;DHT22;64127;51.488;5.462;2022-12-18T04:08:42;-1.30;94.20
75430;DHT22;64127;51.488;5.462;2022-12-18T04:11:16;-1.40;94.20
75430;DHT22;64127;51.488;5.462;2022-12-18T04:13:48;-1.40;94.20
75430;DHT22;64127;51.488;5.462;2022-12-18T04:16:20;-1.50;94.10
75430;DHT22;64127;51.488;5.462;2022-12-18T04:18:52;-1.50;94.20
75430;DHT22;64127;51.488;5.462;2022-12-18T04:21:25;-1.50;94.20
75430;DHT22;64127;51.488;5.462;2022-12-18T04:23:57;-1.50;94.20
75430;DHT22;64127;51.488;5.462;2022-12-18T04:26:29;-1.50;94.20
75430;DHT22;64127;51.488;5.462;2022-12-18T04:29:01;-1.60;94.10
75430;DHT22;64127;51.488;5.462;2022-12-18T04:31:33;-1.60;94.10
75430;DHT22;64127;51.488;5.462;2022-12-18T04:34:05;-1.50;94.20
75430;DHT22;64127;51.488;5.462;2022-12-18T04:36:37;-1.50;94.20
75430;DHT22;64127;51.488;5.462;2022-12-18T04:39:09;-1.60;94.10
75430;DHT22;64127;51.488;5.462;2022-12-18T04:41:41;-1.50;94.10
75430;DHT22;64127;51.488;5.462;2022-12-18T04:44:13;-1.50;94.10
75430;DHT22;64127;51.488;5.462;2022-12-18T04:46:45;-1.60;94.00
75430;DHT22;64127;51.488;5.462;2022-12-18T04:49:17;-1.60;94.00
75430;DHT22;64127;51.488;5.462;2022-12-18T04:51:49;-1.50;94.00
75430;DHT22;64127;51.488;5.462;2022-12-18T04:54:21;-1.50;93.90
75430;DHT22;64127;51.488;5.462;2022-12-18T04:56:54;-1.50;93.90
75430;DHT22;64127;51.488;5.462;2022-12-18T04:59:26;-1.50;93.90
75430;DHT22;64127;51.488;5.462;2022-12-18T05:01:58;-1.50;93.90
75430;DHT22;64127;51.488;5.462;2022-12-18T05:04:30;-1.50;93.90
75430;DHT22;64127;51.488;5.462;2022-12-18T05:07:02;-1.50;93.90
75430;DHT22;64127;51.488;5.462;2022-12-18T05:09:34;-1.50;93.90
75430;DHT22;64127;51.488;5.462;2022-12-18T05:12:06;-1.50;93.90
75430;DHT22;64127;51.488;5.462;2022-12-18T05:14:38;-1.50;93.90
75430;DHT22;64127;51.488;5.462;2022-12-18T05:17:10;-1.60;93.80
75430;DHT22;64127;51.488;5.462;2022-12-18T05:19:42;-1.50;93.90
75430;DHT22;64127;51.488;5.462;2022-12-18T05:22:13;-1.50;93.90
75430;DHT22;64127;51.488;5.462;2022-12-18T05:24:45;-1.60;93.80
75430;DHT22;64127;51.488;5.462;2022-12-18T05:27:17;-1.50;93.80
75430;DHT22;64127;51.488;5.462;2022-12-18T05:29:50;-1.50;93.80
75430;DHT22;64127;51.488;5.462;2022-12-18T05:32:22;-1.50;93.70
75430;DHT22;64127;51.488;5.462;2022-12-18T05:34:54;-1.50;93.70
75430;DHT22;64127;51.488;5.462;2022-12-18T05:37:28;-1.50;93.70
75430;DHT22;64127;51.488;5.462;2022-12-18T05:40:01;-1.50;93.70
75430;DHT22;64127;51.488;5.462;2022-12-18T05:42:34;-1.50;93.70
75430;DHT22;64127;51.488;5.462;2022-12-18T05:45:06;-1.50;93.60
75430;DHT22;64127;51.488;5.462;2022-12-18T05:47:38;-1.50;93.60
75430;DHT22;64127;51.488;5.462;2022-12-18T05:50:10;-1.50;93.60
75430;DHT22;64127;51.488;5.462;2022-12-18T05:52:42;-1.50;93.90
75430;DHT22;64127;51.488;5.462;2022-12-18T05:55:14;-1.60;93.50
75430;DHT22;64127;51.488;5.462;2022-12-18T05:57:46;-1.50;93.60
75430;DHT22;64127;51.488;5.462;2022-12-18T06:00:18;-1.60;93.50
75430;DHT22;64127;51.488;5.462;2022-12-18T06:02:50;-1.60;93.60
75430;DHT22;64127;51.488;5.462;2022-12-18T06:05:23;-1.60;93.50
75430;DHT22;64127;51.488;5.462;2022-12-18T06:07:55;-1.60;93.50
75430;DHT22;64127;51.488;5.462;2022-12-18T06:10:26;-1.70;93.50
75430;DHT22;64127;51.488;5.462;2022-12-18T06:12:59;-1.70;93.50
75430;DHT22;64127;51.488;5.462;2022-12-18T06:15:31;-1.70;93.50
75430;DHT22;64127;51.488;5.462;2022-12-18T06:18:04;-1.70;93.50
75430;DHT22;64127;51.488;5.462;2022-12-18T06:20:36;-1.70;93.50
75430;DHT22;64127;51.488;5.462;2022-12-18T06:23:11;-1.70;93.50
75430;DHT22;64127;51.488;5.462;2022-12-18T06:25:43;-1.70;93.50
75430;DHT22;64127;51.488;5.462;2022-12-18T06:28:15;-1.70;93.50
75430;DHT22;64127;51.488;5.462;2022-12-18T06:30:48;-1.70;93.50
75430;DHT22;64127;51.488;5.462;2022-12-18T06:33:20;-1.70;93.50
75430;DHT22;64127;51.488;5.462;2022-12-18T06:35:52;-1.70;93.50
75430;DHT22;64127;51.488;5.462;2022-12-18T06:38:32;-1.70;93.40
75430;DHT22;64127;51.488;5.462;2022-12-18T06:41:10;-1.70;93.40
75430;DHT22;64127;51.488;5.462;2022-12-18T06:43:44;-1.70;93.40
75430;DHT22;64127;51.488;5.462;2022-12-18T06:46:16;-1.70;93.40
75430;DHT22;64127;51.488;5.462;2022-12-18T06:48:49;-1.70;93.40
75430;DHT22;64127;51.488;5.462;2022-12-18T06:51:23;-1.70;93.40
75430;DHT22;64127;51.488;5.462;2022-12-18T06:53:55;-1.70;93.40
75430;DHT22;64127;51.488;5.462;2022-12-18T06:56:27;-1.80;93.30
75430;DHT22;64127;51.488;5.462;2022-12-18T06:58:59;-1.80;93.40
75430;DHT22;64127;51.488;5.462;2022-12-18T07:01:32;-1.80;93.40
75430;DHT22;64127;51.488;5.462;2022-12-18T07:04:04;-1.80;93.40
75430;DHT22;64127;51.488;5.462;2022-12-18T07:06:36;-1.80;93.40
75430;DHT22;64127;51.488;5.462;2022-12-18T07:09:08;-1.80;93.40
75430;DHT22;64127;51.488;5.462;2022-12-18T07:11:40;-1.90;93.40
75430;DHT22;64127;51.488;5.462;2022-12-18T07:14:12;-1.90;93.40
75430;DHT22;64127;51.488;5.462;2022-12-18T07:16:44;-1.90;93.40
75430;DHT22;64127;51.488;5.462;2022-12-18T07:19:16;-1.90;93.50
75430;DHT22;64127;51.488;5.462;2022-12-18T07:21:49;-1.90;93.50
75430;DHT22;64127;51.488;5.462;2022-12-18T07:24:22;-1.90;93.50
75430;DHT22;64127;51.488;5.462;2022-12-18T07:26:54;-1.90;93.50
75430;DHT22;64127;51.488;5.462;2022-12-18T07:29:26;-1.90;93.50
75430;DHT22;64127;51.488;5.462;2022-12-18T07:31:58;-1.90;93.50
75430;DHT22;64127;51.488;5.462;2022-12-18T07:34:30;-1.90;93.50
75430;DHT22;64127;51.488;5.462;2022-12-18T07:37:02;-1.90;93.50
75430;DHT22;64127;51.488;5.462;2022-12-18T07:39:34;-1.90;93.50
75430;DHT22;64127;51.488;5.462;2022-12-18T07:42:05;-1.90;93.60
75430;DHT22;64127;51.488;5.462;2022-12-18T07:44:59;-1.90;93.60
75430;DHT22;64127;51.488;5.462;2022-12-18T07:47:34;-2.00;93.60
75430;DHT22;64127;51.488;5.462;2022-12-18T07:50:08;-2.00;93.60
75430;DHT22;64127;51.488;5.462;2022-12-18T07:52:40;-2.00;93.60
75430;DHT22;64127;51.488;5.462;2022-12-18T07:55:12;-2.00;93.60
75430;DHT22;64127;51.488;5.462;2022-12-18T07:57:44;-2.00;93.60
75430;DHT22;64127;51.488;5.462;2022-12-18T08:00:31;-2.00;93.60
75430;DHT22;64127;51.488;5.462;2022-12-18T08:03:03;-2.00;93.60
75430;DHT22;64127;51.488;5.462;2022-12-18T08:05:36;-2.00;94.00
75430;DHT22;64127;51.488;5.462;2022-12-18T08:08:08;-2.00;93.60
75430;DHT22;64127;51.488;5.462;2022-12-18T08:10:41;-2.00;93.70
75430;DHT22;64127;51.488;5.462;2022-12-18T08:13:13;-2.00;93.80
75430;DHT22;64127;51.488;5.462;2022-12-18T08:15:45;-1.90;93.80
75430;DHT22;64127;51.488;5.462;2022-12-18T08:18:17;-1.90;93.90
75430;DHT22;64127;51.488;5.462;2022-12-18T08:20:49;-1.90;93.90
75430;DHT22;64127;51.488;5.462;2022-12-18T08:23:21;-1.80;94.00
75430;DHT22;64127;51.488;5.462;2022-12-18T08:25:58;-1.80;94.00
75430;DHT22;64127;51.488;5.462;2022-12-18T08:28:30;-1.80;94.00
75430;DHT22;64127;51.488;5.462;2022-12-18T08:31:02;-1.80;94.00
75430;DHT22;64127;51.488;5.462;2022-12-18T08:33:35;-1.70;94.10
75430;DHT22;64127;51.488;5.462;2022-12-18T08:36:09;-1.70;94.10
75430;DHT22;64127;51.488;5.462;2022-12-18T08:38:41;-1.70;94.10
75430;DHT22;64127;51.488;5.462;2022-12-18T08:41:14;-1.70;94.10
75430;DHT22;64127;51.488;5.462;2022-12-18T08:43:47;-1.60;94.30
75430;DHT22;64127;51.488;5.462;2022-12-18T08:46:40;-1.60;94.30
75430;DHT22;64127;51.488;5.462;2022-12-18T08:49:14;-1.60;94.30
75430;DHT22;64127;51.488;5.462;2022-12-18T08:51:46;-1.50;94.30
75430;DHT22;64127;51.488;5.462;2022-12-18T08:54:18;-1.50;94.30
75430;DHT22;64127;51.488;5.462;2022-12-18T08:56:50;-1.50;94.30
75430;DHT22;64127;51.488;5.462;2022-12-18T08:59:22;-1.40;94.40
75430;DHT22;64127;51.488;5.462;2022-12-18T09:01:55;-1.40;94.40
75430;DHT22;64127;51.488;5.462;2022-12-18T09:04:27;-1.40;94.40
75430;DHT22;64127;51.488;5.462;2022-12-18T09:06:59;-1.40;94.40
75430;DHT22;64127;51.488;5.462;2022-12-18T09:09:31;-1.30;94.50
75430;DHT22;64127;51.488;5.462;2022-12-18T09:12:03;-1.30;94.50
75430;DHT22;64127;51.488;5.462;2022-12-18T09:14:36;-1.30;94.50
75430;DHT22;64127;51.488;5.462;2022-12-18T09:17:07;-1.30;94.60
75430;DHT22;64127;51.488;5.462;2022-12-18T09:19:40;-1.20;94.60
75430;DHT22;64127;51.488;5.462;2022-12-18T09:22:12;-1.20;94.60
75430;DHT22;64127;51.488;5.462;2022-12-18T09:24:44;-1.20;94.60
75430;DHT22;64127;51.488;5.462;2022-12-18T09:27:15;-1.10;94.70
75430;DHT22;64127;51.488;5.462;2022-12-18T09:29:47;-1.10;94.70
75430;DHT22;64127;51.488;5.462;2022-12-18T09:32:19;-1.00;94.70
75430;DHT22;64127;51.488;5.462;2022-12-18T09:34:53;-1.00;94.70
75430;DHT22;64127;51.488;5.462;2022-12-18T09:37:25;-1.00;94.70
75430;DHT22;64127;51.488;5.462;2022-12-18T09:39:57;-0.90;94.70
75430;DHT22;64127;51.488;5.462;2022-12-18T09:42:29;-0.90;94.70
75430;DHT22;64127;51.488;5.462;2022-12-18T09:45:03;-0.80;95.10
75430;DHT22;64127;51.488;5.462;2022-12-18T09:47:37;-0.80;94.70
75430;DHT22;64127;51.488;5.462;2022-12-18T09:50:35;-0.70;94.80
75430;DHT22;64127;51.488;5.462;2022-12-18T09:53:22;-0.70;94.80
75430;DHT22;64127;51.488;5.462;2022-12-18T09:56:01;-0.60;94.80
75430;DHT22;64127;51.488;5.462;2022-12-18T09:58:59;-0.60;94.80
75430;DHT22;64127;51.488;5.462;2022-12-18T10:01:33;-0.50;94.90
75430;DHT22;64127;51.488;5.462;2022-12-18T10:04:14;-0.40;94.90
75430;DHT22;64127;51.488;5.462;2022-12-18T10:06:49;-0.40;94.80
75430;DHT22;64127;51.488;5.462;2022-12-18T10:10:10;-0.30;94.90
75430;DHT22;64127;51.488;5.462;2022-12-18T10:13:03;-0.20;94.90
75430;DHT22;64127;51.488;5.462;2022-12-18T10:16:17;-0.20;94.90
75430;DHT22;64127;51.488;5.462;2022-12-18T10:24:53;-0.10;94.90
75430;DHT22;64127;51.488;5.462;2022-12-18T10:28:07;-0.10;94.90
75430;DHT22;64127;51.488;5.462;2022-12-18T10:30:43;-0.10;94.90
75430;DHT22;64127;51.488;5.462;2022-12-18T10:33:24;-0.10;94.90
75430;DHT22;64127;51.488;5.462;2022-12-18T10:36:01;-0.10;95.00
75430;DHT22;64127;51.488;5.462;2022-12-18T10:38:34;0.00;95.00
75430;DHT22;64127;51.488;5.462;2022-12-18T10:41:27;0.00;95.00
75430;DHT22;64127;51.488;5.462;2022-12-18T10:47:03;0.10;95.10
75430;DHT22;64127;51.488;5.462;2022-12-18T10:49:49;0.10;95.10
75430;DHT22;64127;51.488;5.462;2022-12-18T10:52:24;0.20;95.20
75430;DHT22;64127;51.488;5.462;2022-12-18T10:54:59;0.20;95.20
75430;DHT22;64127;51.488;5.462;2022-12-18T10:57:37;0.20;95.20
75430;DHT22;64127;51.488;5.462;2022-12-18T11:00:29;0.30;95.30
75430;DHT22;64127;51.488;5.462;2022-12-18T11:03:02;0.30;95.20
75430;DHT22;64127;51.488;5.462;2022-12-18T11:05:34;0.30;95.20
75430;DHT22;64127;51.488;5.462;2022-12-18T11:08:20;0.30;95.20
75430;DHT22;64127;51.488;5.462;2022-12-18T11:10:55;0.30;95.30
75430;DHT22;64127;51.488;5.462;2022-12-18T11:13:29;0.30;95.30
75430;DHT22;64127;51.488;5.462;2022-12-18T11:16:03;0.30;95.30
75430;DHT22;64127;51.488;5.462;2022-12-18T11:18:36;0.30;95.30
75430;DHT22;64127;51.488;5.462;2022-12-18T11:21:12;0.30;95.30
75430;DHT22;64127;51.488;5.462;2022-12-18T11:23:53;0.30;95.40
75430;DHT22;64127;51.488;5.462;2022-12-18T11:26:34;0.40;95.40
75430;DHT22;64127;51.488;5.462;2022-12-18T11:29:16;0.40;95.40
75430;DHT22;64127;51.488;5.462;2022-12-18T11:31:51;0.40;95.40
75430;DHT22;64127;51.488;5.462;2022-12-18T11:34:49;0.50;95.40
75430;DHT22;64127;51.488;5.462;2022-12-18T11:37:31;0.50;95.70
75430;DHT22;64127;51.488;5.462;2022-12-18T11:40:15;0.50;95.50
75430;DHT22;64127;51.488;5.462;2022-12-18T11:43:06;0.50;95.50
75430;DHT22;64127;51.488;5.462;2022-12-18T11:46:43;0.50;95.50
75430;DHT22;64127;51.488;5.462;2022-12-18T11:49:33;0.60;95.50
75430;DHT22;64127;51.488;5.462;2022-12-18T11:52:24;0.60;95.40
75430;DHT22;64127;51.488;5.462;2022-12-18T11:55:04;0.60;95.40
75430;DHT22;64127;51.488;5.462;2022-12-18T12:13:45;0.90;95.50
75430;DHT22;64127;51.488;5.462;2022-12-18T12:22:38;0.90;95.40
75430;DHT22;64127;51.488;5.462;2022-12-18T12:25:50;1.00;95.40
75430;DHT22;64127;51.488;5.462;2022-12-18T12:28:47;0.90;95.40
75430;DHT22;64127;51.488;5.462;2022-12-18T12:35:01;1.00;95.40
75430;DHT22;64127;51.488;5.462;2022-12-18T12:40:24;1.00;95.40
75430;DHT22;64127;51.488;5.462;2022-12-18T12:46:12;1.10;95.40
75430;DHT22;64127;51.488;5.462;2022-12-18T12:48:56;1.10;95.40
75430;DHT22;64127;51.488;5.462;2022-12-18T12:51:40;1.10;95.70
75430;DHT22;64127;51.488;5.462;2022-12-18T12:54:21;1.10;95.30
75430;DHT22;64127;51.488;5.462;2022-12-18T12:56:57;1.20;95.30
75430;DHT22;64127;51.488;5.462;2022-12-18T13:08:24;1.20;95.10
75430;DHT22;64127;51.488;5.462;2022-12-18T13:11:01;1.20;95.10
75430;DHT22;64127;51.488;5.462;2022-12-18T13:14:24;1.30;95.10
75430;DHT22;64127;51.488;5.462;2022-12-18T13:20:08;1.30;95.10
75430;DHT22;64127;51.488;5.462;2022-12-18T13:22:48;1.30;95.10
75430;DHT22;64127;51.488;5.462;2022-12-18T13:25:35;1.30;95.10
75430;DHT22;64127;51.488;5.462;2022-12-18T13:28:15;1.30;95.10
75430;DHT22;64127;51.488;5.462;2022-12-18T13:30:57;1.40;95.10
75430;DHT22;64127;51.488;5.462;2022-12-18T13:38:44;1.40;95.00
75430;DHT22;64127;51.488;5.462;2022-12-18T13:41:27;1.40;95.00
75430;DHT22;64127;51.488;5.462;2022-12-18T13:44:32;1.40;95.00
75430;DHT22;64127;51.488;5.462;2022-12-18T13:47:32;1.50;95.00
75430;DHT22;64127;51.488;5.462;2022-12-18T13:50:23;1.50;94.90
75430;DHT22;64127;51.488;5.462;2022-12-18T13:53:06;1.50;94.90
75430;DHT22;64127;51.488;5.462;2022-12-18T13:55:38;1.50;94.90
75430;DHT22;64127;51.488;5.462;2022-12-18T13:58:16;1.50;94.80
75430;DHT22;64127;51.488;5.462;2022-12-18T14:00:49;1.60;95.20
75430;DHT22;64127;51.488;5.462;2022-12-18T14:03:24;1.60;94.80
75430;DHT22;64127;51.488;5.462;2022-12-18T14:06:06;1.60;94.80
75430;DHT22;64127;51.488;5.462;2022-12-18T14:08:41;1.60;94.80
75430;DHT22;64127;51.488;5.462;2022-12-18T14:11:22;1.60;94.70
75430;DHT22;64127;51.488;5.462;2022-12-18T14:13:57;1.60;94.70
75430;DHT22;64127;51.488;5.462;2022-12-18T14:16:30;1.70;94.70
75430;DHT22;64127;51.488;5.462;2022-12-18T14:19:03;1.70;94.70
75430;DHT22;64127;51.488;5.462;2022-12-18T14:21:47;1.60;94.60
75430;DHT22;64127;51.488;5.462;2022-12-18T14:24:21;1.70;94.60
75430;DHT22;64127;51.488;5.462;2022-12-18T14:26:53;1.70;94.60
75430;DHT22;64127;51.488;5.462;2022-12-18T14:29:27;1.70;94.60
75430;DHT22;64127;51.488;5.462;2022-12-18T14:32:11;1.70;94.60
75430;DHT22;64127;51.488;5.462;2022-12-18T14:34:53;1.70;94.60
75430;DHT22;64127;51.488;5.462;2022-12-18T14:37:26;1.80;94.60
75430;DHT22;64127;51.488;5.462;2022-12-18T14:40:01;1.70;94.60
75430;DHT22;64127;51.488;5.462;2022-12-18T14:42:42;1.80;94.60
75430;DHT22;64127;51.488;5.462;2022-12-18T14:45:39;1.70;94.50
75430;DHT22;64127;51.488;5.462;2022-12-18T14:48:21;1.70;94.50
75430;DHT22;64127;51.488;5.462;2022-12-18T14:51:17;1.80;94.50
75430;DHT22;64127;51.488;5.462;2022-12-18T14:53:58;1.80;94.50
75430;DHT22;64127;51.488;5.462;2022-12-18T14:56:36;1.80;94.50
75430;DHT22;64127;51.488;5.462;2022-12-18T14:59:19;1.80;94.40
75430;DHT22;64127;51.488;5.462;2022-12-18T15:05:14;1.80;94.40
75430;DHT22;64127;51.488;5.462;2022-12-18T15:07:54;1.80;94.40
75430;DHT22;64127;51.488;5.462;2022-12-18T15:10:34;1.80;94.40
75430;DHT22;64127;51.488;5.462;2022-12-18T15:13:09;1.80;94.40
75430;DHT22;64127;51.488;5.462;2022-12-18T15:15:52;1.80;94.30
75430;DHT22;64127;51.488;5.462;2022-12-18T15:18:33;1.80;94.40
75430;DHT22;64127;51.488;5.462;2022-12-18T15:21:17;1.70;94.30
75430;DHT22;64127;51.488;5.462;2022-12-18T15:23:51;1.80;94.40
75430;DHT22;64127;51.488;5.462;2022-12-18T15:26:24;1.80;94.40
75430;DHT22;64127;51.488;5.462;2022-12-18T15:28:57;1.80;94.40
75430;DHT22;64127;51.488;5.462;2022-12-18T15:31:33;1.80;94.40
75430;DHT22;64127;51.488;5.462;2022-12-18T15:34:19;1.80;94.30
75430;DHT22;64127;51.488;5.462;2022-12-18T15:36:53;1.80;94.30
75430;DHT22;64127;51.488;5.462;2022-12-18T15:39:24;1.80;94.30
75430;DHT22;64127;51.488;5.462;2022-12-18T15:41:56;1.80;94.30
75430;DHT22;64127;51.488;5.462;2022-12-18T15:44:47;1.80;94.30
75430;DHT22;64127;51.488;5.462;2022-12-18T15:47:20;1.80;94.30
75430;DHT22;64127;51.488;5.462;2022-12-18T15:49:52;1.80;94.30
75430;DHT22;64127;51.488;5.462;2022-12-18T15:52:23;1.80;94.30
75430;DHT22;64127;51.488;5.462;2022-12-18T15:54:57;1.80;94.30
75430;DHT22;64127;51.488;5.462;2022-12-18T15:57:48;1.80;94.20
75430;DHT22;64127;51.488;5.462;2022-12-18T16:00:20;1.80;94.20
75430;DHT22;64127;51.488;5.462;2022-12-18T16:02:52;1.80;94.20
75430;DHT22;64127;51.488;5.462;2022-12-18T16:05:26;1.90;94.30
75430;DHT22;64127;51.488;5.462;2022-12-18T16:08:00;1.90;94.30
75430;DHT22;64127;51.488;5.462;2022-12-18T16:10:32;1.90;94.20
75430;DHT22;64127;51.488;5.462;2022-12-18T16:13:04;1.90;94.20
75430;DHT22;64127;51.488;5.462;2022-12-18T16:15:37;1.90;94.10
75430;DHT22;64127;51.488;5.462;2022-12-18T16:18:10;1.90;94.10
75430;DHT22;64127;51.488;5.462;2022-12-18T16:20:42;1.90;94.10
75430;DHT22;64127;51.488;5.462;2022-12-18T16:23:14;1.90;94.10
75430;DHT22;64127;51.488;5.462;2022-12-18T16:25:46;1.90;94.10
75430;DHT22;64127;51.488;5.462;2022-12-18T16:28:18;1.90;94.10
75430;DHT22;64127;51.488;5.462;2022-12-18T16:30:50;1.90;94.10
75430;DHT22;64127;51.488;5.462;2022-12-18T16:33:22;2.00;94.10
75430;DHT22;64127;51.488;5.462;2022-12-18T16:35:54;1.90;94.00
75430;DHT22;64127;51.488;5.462;2022-12-18T16:38:26;1.90;94.00
75430;DHT22;64127;51.488;5.462;2022-12-18T16:40:57;1.90;94.00
75430;DHT22;64127;51.488;5.462;2022-12-18T16:43:48;1.90;94.00
75430;DHT22;64127;51.488;5.462;2022-12-18T16:46:25;1.90;94.00
75430;DHT22;64127;51.488;5.462;2022-12-18T16:48:58;1.90;94.00
75430;DHT22;64127;51.488;5.462;2022-12-18T16:51:31;1.90;94.00
75430;DHT22;64127;51.488;5.462;2022-12-18T16:54:03;1.90;93.90
75430;DHT22;64127;51.488;5.462;2022-12-18T16:56:41;1.90;93.90
75430;DHT22;64127;51.488;5.462;2022-12-18T16:59:13;1.90;93.90
75430;DHT22;64127;51.488;5.462;2022-12-18T17:01:46;1.90;93.90
75430;DHT22;64127;51.488;5.462;2022-12-18T17:04:18;1.90;93.90
75430;DHT22;64127;51.488;5.462;2022-12-18T17:06:50;1.90;93.90
75430;DHT22;64127;51.488;5.462;2022-12-18T17:09:24;1.90;93.90
75430;DHT22;64127;51.488;5.462;2022-12-18T17:11:56;2.00;94.00
75430;DHT22;64127;51.488;5.462;2022-12-18T17:14:28;2.00;93.90
75430;DHT22;64127;51.488;5.462;2022-12-18T17:17:00;2.00;93.90
75430;DHT22;64127;51.488;5.462;2022-12-18T17:19:52;2.00;93.90
75430;DHT22;64127;51.488;5.462;2022-12-18T17:22:24;1.90;93.90
75430;DHT22;64127;51.488;5.462;2022-12-18T17:24:56;2.00;94.00
75430;DHT22;64127;51.488;5.462;2022-12-18T17:27:28;1.90;93.90
75430;DHT22;64127;51.488;5.462;2022-12-18T17:30:01;2.00;94.00
75430;DHT22;64127;51.488;5.462;2022-12-18T17:32:33;2.00;94.00
75430;DHT22;64127;51.488;5.462;2022-12-18T17:35:05;2.00;94.00
75430;DHT22;64127;51.488;5.462;2022-12-18T17:37:38;2.00;94.00
75430;DHT22;64127;51.488;5.462;2022-12-18T17:40:10;2.10;94.00
75430;DHT22;64127;51.488;5.462;2022-12-18T17:42:42;2.10;94.00
75430;DHT22;64127;51.488;5.462;2022-12-18T17:45:14;2.10;93.90
75430;DHT22;64127;51.488;5.462;2022-12-18T17:47:46;2.10;93.90
75430;DHT22;64127;51.488;5.462;2022-12-18T17:50:18;2.10;93.90
75430;DHT22;64127;51.488;5.462;2022-12-18T17:52:55;2.10;93.90
75430;DHT22;64127;51.488;5.462;2022-12-18T17:55:27;2.20;93.90